Time;durP1;ratioP1;P1;durP2;ratioP2;P2;SDS_P1;SDS_P2;PMS_P1;PMS_P2;Temp;Humidity;BMP_temperature;BMP_pressure;BME280_temperature;BME280_humidity;BME280_pressure;Samples;Min_cycle;Max_cycle;Signal;HPM_P1;HPM_P2
2023/06/26 00:01:31;;;;;;;12.02;5.57;;;;;;;;;;4988626;28;20065;-76
2023/06/26 00:04:01;;;;;;;11.88;5.55;;;;;;;;;;4988186;28;20050;-76
2023/06/26 00:06:31;;;;;;;7.70;5.07;;;;;;;;;;4983655;28;20452;-76
2023/06/26 00:09:03;;;;;;;9.63;5.10;;;;;;;;;;4987997;28;20095;-76
2023/06/26 00:11:34;;;;;;;10.40;5.57;;;;;;;;;;4983491;28;20396;-76
2023/06/26 00:14:04;;;;;;;8.48;5.47;;;;;;;;;;4987910;28;20057;-76
2023/06/26 00:16:34;;;;;;;13.55;5.38;;;;;;;;;;4988169;28;20474;-74
2023/06/26 00:19:04;;;;;;;11.23;5.00;;;;;;;;;;4988045;28;20516;-77
2023/06/26 00:21:34;;;;;;;10.82;5.00;;;;;;;;;;4988192;28;20046;-75
2023/06/26 00:24:05;;;;;;;8.98;4.72;;;;;;;;;;4988381;28;20047;-76
2023/06/26 00:26:38;;;;;;;7.97;4.75;;;;;;;;;;4971922;28;20497;-76
2023/06/26 00:29:08;;;;;;;8.65;4.50;;;;;;;;;;4970112;28;20045;-76
2023/06/26 00:31:39;;;;;;;8.93;5.10;;;;;;;;;;4987654;28;20146;-76
2023/06/26 00:34:11;;;;;;;9.27;5.45;;;;;;;;;;4983653;28;20417;-76
2023/06/26 00:36:43;;;;;;;10.75;5.57;;;;;;;;;;4986725;28;20042;-76
2023/06/26 00:39:15;;;;;;;12.93;4.68;;;;;;;;;;4986407;28;20046;-76
2023/06/26 00:41:45;;;;;;;9.55;4.50;;;;;;;;;;4969400;28;20061;-76
2023/06/26 00:44:16;;;;;;;10.50;5.00;;;;;;;;;;4987828;28;20050;-76
2023/06/26 00:46:47;;;;;;;10.00;6.25;;;;;;;;;;4969993;28;20429;-75
2023/06/26 00:49:19;;;;;;;9.45;5.13;;;;;;;;;;4970183;28;20065;-76
2023/06/26 00:51:50;;;;;;;6.95;5.15;;;;;;;;;;4987977;28;20046;-76
2023/06/26 00:54:22;;;;;;;13.70;5.03;;;;;;;;;;4988121;28;20046;-75
2023/06/26 00:56:52;;;;;;;9.38;5.30;;;;;;;;;;4970544;28;20065;-76
2023/06/26 00:59:21;;;;;;;15.43;6.57;;;;;;;;;;4988086;28;20050;-76
2023/06/26 01:01:53;;;;;;;12.88;6.05;;;;;;;;;;4988235;28;20034;-76
2023/06/26 01:04:27;;;;;;;12.35;6.57;;;;;;;;;;4953252;28;20046;-76
2023/06/26 01:06:59;;;;;;;8.32;5.50;;;;;;;;;;4987788;28;20061;-76
2023/06/26 01:09:31;;;;;;;11.85;6.00;;;;;;;;;;4970240;28;20421;-76
2023/06/26 01:12:02;;;;;;;7.68;5.63;;;;;;;;;;4988019;28;20046;-76
2023/06/26 01:14:36;;;;;;;11.27;6.40;;;;;;;;;;4987774;28;20433;-76
2023/06/26 01:17:15;;;;;;;9.75;5.85;;;;;;;;;;4987532;28;20537;-78
2023/06/26 01:19:46;;;;;;;10.05;4.88;;;;;;;;;;4987768;28;20604;-76
2023/06/26 01:22:45;;;;;;;10.57;4.60;;;;;;;;;;4987300;28;20050;-75
2023/06/26 01:25:27;;;;;;;11.05;5.10;;;;;;;;;;4987207;28;20083;-77
2023/06/26 01:27:57;;;;;;;10.65;5.38;;;;;;;;;;4987397;28;20042;-75
2023/06/26 01:30:29;;;;;;;8.93;4.50;;;;;;;;;;4969266;28;20058;-75
2023/06/26 01:33:01;;;;;;;5.68;4.35;;;;;;;;;;4987393;28;20062;-75
2023/06/26 01:35:34;;;;;;;10.18;4.78;;;;;;;;;;4987433;28;20046;-77
2023/06/26 01:38:19;;;;;;;10.13;5.32;;;;;;;;;;4987392;28;20049;-76
2023/06/26 01:40:50;;;;;;;7.93;4.40;;;;;;;;;;4969844;28;20061;-76
2023/06/26 01:43:39;;;;;;;9.55;5.25;;;;;;;;;;4987993;28;20401;-76
2023/06/26 01:46:40;;;;;;;6.85;4.82;;;;;;;;;;4968997;28;20074;-76
2023/06/26 01:49:24;;;;;;;8.63;5.25;;;;;;;;;;4982633;28;20085;-77
2023/06/26 01:52:27;;;;;;;10.77;5.25;;;;;;;;;;4970879;28;20057;-75
2023/06/26 01:55:09;;;;;;;8.68;4.43;;;;;;;;;;4986717;28;20043;-75
2023/06/26 01:57:40;;;;;;;12.05;4.82;;;;;;;;;;4986778;28;20050;-76
2023/06/26 02:00:13;;;;;;;9.90;4.32;;;;;;;;;;4968635;28;20680;-76
2023/06/26 02:02:45;;;;;;;11.38;5.32;;;;;;;;;;4988851;28;20435;-76
2023/06/26 02:05:17;;;;;;;9.45;5.15;;;;;;;;;;4985528;28;20057;-76
2023/06/26 02:07:48;;;;;;;9.45;5.10;;;;;;;;;;4986067;28;20066;-76
2023/06/26 02:10:18;;;;;;;7.63;4.78;;;;;;;;;;4986536;28;20061;-76
2023/06/26 02:12:49;;;;;;;10.82;4.55;;;;;;;;;;4986593;28;20058;-75
2023/06/26 02:15:21;;;;;;;8.48;4.53;;;;;;;;;;4967934;28;20073;-76
2023/06/26 02:17:53;;;;;;;6.60;5.20;;;;;;;;;;4986555;28;20050;-76
2023/06/26 02:20:24;;;;;;;10.73;4.63;;;;;;;;;;4986656;28;20046;-75
2023/06/26 02:22:53;;;;;;;9.32;4.47;;;;;;;;;;4986488;28;20050;-75
2023/06/26 02:25:25;;;;;;;6.30;4.95;;;;;;;;;;4968367;28;20054;-75
2023/06/26 02:27:56;;;;;;;10.20;4.45;;;;;;;;;;4986318;28;20074;-75
2023/06/26 02:30:26;;;;;;;7.47;5.07;;;;;;;;;;4986190;28;20049;-76
2023/06/26 02:32:56;;;;;;;7.68;4.85;;;;;;;;;;4986606;28;20057;-76
2023/06/26 02:35:26;;;;;;;9.85;5.05;;;;;;;;;;4968234;28;20054;-76
2023/06/26 02:37:57;;;;;;;9.05;4.32;;;;;;;;;;4968107;28;20543;-76
2023/06/26 02:40:28;;;;;;;7.45;4.72;;;;;;;;;;4967961;28;20054;-76
2023/06/26 02:42:59;;;;;;;8.57;4.88;;;;;;;;;;4967652;28;20054;-75
2023/06/26 02:45:32;;;;;;;10.82;4.63;;;;;;;;;;4968197;28;20062;-75
2023/06/26 02:48:03;;;;;;;11.23;5.03;;;;;;;;;;4968361;28;20065;-76
2023/06/26 02:50:34;;;;;;;7.70;4.78;;;;;;;;;;4968332;28;20069;-75
2023/06/26 02:53:13;;;;;;;10.73;4.97;;;;;;;;;;4967396;28;20537;-75
2023/06/26 02:55:48;;;;;;;8.07;4.65;;;;;;;;;;4967903;28;20050;-75
2023/06/26 02:58:20;;;;;;;8.65;4.10;;;;;;;;;;4967657;28;20058;-76
2023/06/26 03:00:53;;;;;;;11.38;4.85;;;;;;;;;;4967738;28;20608;-75
2023/06/26 03:03:23;;;;;;;9.63;4.50;;;;;;;;;;4968146;28;20042;-76
2023/06/26 03:05:55;;;;;;;7.80;4.75;;;;;;;;;;4967621;28;20065;-75
2023/06/26 03:08:27;;;;;;;6.28;4.43;;;;;;;;;;4967708;28;20057;-76
2023/06/26 03:11:00;;;;;;;5.85;3.95;;;;;;;;;;4967251;28;20061;-75
2023/06/26 03:13:32;;;;;;;5.88;4.30;;;;;;;;;;4967685;28;20061;-75
2023/06/26 03:16:04;;;;;;;6.60;4.72;;;;;;;;;;4984559;28;20062;-75
2023/06/26 03:18:36;;;;;;;7.95;5.20;;;;;;;;;;4986137;28;20050;-76
2023/06/26 03:21:07;;;;;;;9.73;5.00;;;;;;;;;;4967842;28;20057;-75
2023/06/26 03:23:42;;;;;;;11.07;4.63;;;;;;;;;;4967485;28;20081;-75
2023/06/26 03:26:14;;;;;;;12.10;5.20;;;;;;;;;;4967252;28;20065;-75
2023/06/26 03:28:46;;;;;;;6.90;5.10;;;;;;;;;;4987241;28;20405;-76
2023/06/26 03:31:17;;;;;;;8.60;4.20;;;;;;;;;;4988603;28;20054;-76
2023/06/26 03:33:48;;;;;;;7.35;4.88;;;;;;;;;;4972074;28;20559;-76
2023/06/26 03:36:18;;;;;;;11.73;5.00;;;;;;;;;;4971033;28;20050;-76
2023/06/26 03:38:49;;;;;;;9.75;4.63;;;;;;;;;;4971040;28;20065;-75
2023/06/26 03:41:20;;;;;;;9.75;5.03;;;;;;;;;;4989435;28;20046;-75
2023/06/26 03:43:50;;;;;;;9.93;4.72;;;;;;;;;;4971530;28;20050;-75
2023/06/26 03:46:23;;;;;;;8.40;4.85;;;;;;;;;;4971132;28;20515;-74
2023/06/26 03:48:54;;;;;;;7.40;5.40;;;;;;;;;;4989977;28;20402;-75
2023/06/26 03:51:24;;;;;;;8.02;5.15;;;;;;;;;;4955884;28;20054;-75
2023/06/26 03:53:55;;;;;;;12.45;5.45;;;;;;;;;;4971163;28;20085;-75
2023/06/26 03:56:25;;;;;;;8.55;4.85;;;;;;;;;;4970844;28;20050;-76
2023/06/26 03:58:57;;;;;;;7.97;6.10;;;;;;;;;;4971893;28;20428;-75
2023/06/26 04:01:28;;;;;;;8.90;5.10;;;;;;;;;;4970786;28;20050;-76
2023/06/26 04:04:00;;;;;;;11.70;6.20;;;;;;;;;;4989282;28;20429;-75
2023/06/26 04:06:33;;;;;;;8.68;5.35;;;;;;;;;;4971816;28;20053;-76
2023/06/26 04:09:04;;;;;;;8.15;5.70;;;;;;;;;;4971481;28;20046;-75
2023/06/26 04:11:34;;;;;;;10.38;5.00;;;;;;;;;;4970776;28;20081;-75
2023/06/26 04:14:05;;;;;;;10.77;4.85;;;;;;;;;;4988516;28;20507;-75
2023/06/26 04:16:35;;;;;;;6.80;5.20;;;;;;;;;;4988562;28;20046;-76
2023/06/26 04:19:05;;;;;;;7.63;5.00;;;;;;;;;;4988856;28;20042;-76
2023/06/26 04:21:36;;;;;;;9.18;5.57;;;;;;;;;;4989010;28;20054;-75
2023/06/26 04:24:07;;;;;;;8.40;5.40;;;;;;;;;;4989103;28;20051;-76
2023/06/26 04:26:40;;;;;;;6.57;5.00;;;;;;;;;;4988594;28;20061;-76
2023/06/26 04:29:10;;;;;;;19.05;5.60;;;;;;;;;;4988017;28;20046;-76
2023/06/26 04:31:41;;;;;;;9.18;4.85;;;;;;;;;;4988096;28;20050;-76
2023/06/26 04:34:11;;;;;;;10.60;6.35;;;;;;;;;;4988463;28;20058;-76
2023/06/26 04:36:46;;;;;;;10.60;6.10;;;;;;;;;;4988531;28;20065;-75
2023/06/26 04:39:16;;;;;;;9.93;5.63;;;;;;;;;;4988323;28;20498;-75
2023/06/26 04:41:46;;;;;;;8.23;5.88;;;;;;;;;;4970420;28;20077;-76
2023/06/26 04:44:19;;;;;;;9.70;5.32;;;;;;;;;;4988118;28;20053;-75
2023/06/26 04:46:51;;;;;;;10.27;5.65;;;;;;;;;;4988145;28;20046;-75
2023/06/26 04:49:21;;;;;;;9.18;5.70;;;;;;;;;;4988292;28;20054;-75
2023/06/26 04:51:51;;;;;;;7.35;5.75;;;;;;;;;;4987805;28;20058;-76
2023/06/26 04:54:23;;;;;;;9.18;6.00;;;;;;;;;;4988782;28;20050;-74
2023/06/26 04:56:53;;;;;;;9.30;6.32;;;;;;;;;;4988422;28;20053;-74
2023/06/26 04:59:23;;;;;;;14.30;6.15;;;;;;;;;;4988291;28;20700;-75
2023/06/26 05:01:55;;;;;;;11.45;6.57;;;;;;;;;;4988037;28;20058;-75
2023/06/26 05:04:26;;;;;;;9.50;6.03;;;;;;;;;;4987814;28;20077;-75
2023/06/26 05:06:57;;;;;;;8.38;5.95;;;;;;;;;;4987905;28;20055;-76
2023/06/26 05:09:27;;;;;;;11.48;6.32;;;;;;;;;;4988159;28;20046;-76
2023/06/26 05:11:58;;;;;;;8.82;6.97;;;;;;;;;;4988324;28;20391;-74
2023/06/26 05:14:28;;;;;;;14.75;6.95;;;;;;;;;;4987754;28;20061;-75
2023/06/26 05:16:59;;;;;;;9.60;5.70;;;;;;;;;;4987626;28;20056;-76
2023/06/26 05:19:29;;;;;;;9.25;5.95;;;;;;;;;;4987831;28;20062;-75
2023/06/26 05:22:03;;;;;;;10.63;6.40;;;;;;;;;;4987279;28;20050;-76
2023/06/26 05:24:39;;;;;;;9.43;7.25;;;;;;;;;;4988029;28;20406;-76
2023/06/26 05:27:19;;;;;;;8.75;6.45;;;;;;;;;;4970564;28;20050;-74
2023/06/26 05:29:50;;;;;;;9.88;6.32;;;;;;;;;;4988015;28;20379;-76
2023/06/26 05:32:23;;;;;;;17.83;6.25;;;;;;;;;;4986977;28;20114;-76
2023/06/26 05:34:55;;;;;;;16.40;7.35;;;;;;;;;;4987225;28;20058;-76
2023/06/26 05:37:30;;;;;;;9.40;6.40;;;;;;;;;;4987125;28;20054;-76
2023/06/26 05:40:03;;;;;;;11.02;5.70;;;;;;;;;;4987121;28;20821;-76
2023/06/26 05:42:36;;;;;;;8.38;6.35;;;;;;;;;;4987178;28;20065;-76
2023/06/26 05:45:07;;;;;;;9.05;6.00;;;;;;;;;;4969557;28;20518;-75
2023/06/26 05:47:38;;;;;;;8.88;6.20;;;;;;;;;;4987211;28;20046;-75
2023/06/26 05:50:10;;;;;;;13.65;6.47;;;;;;;;;;4970047;28;20051;-76
2023/06/26 05:52:41;;;;;;;24.33;7.40;;;;;;;;;;4969798;28;20589;-76
2023/06/26 05:55:13;;;;;;;15.82;7.00;;;;;;;;;;4986895;28;20053;-75
2023/06/26 05:57:46;;;;;;;10.50;5.95;;;;;;;;;;4987257;28;20910;-76
2023/06/26 06:00:16;;;;;;;8.60;5.90;;;;;;;;;;4986916;28;20387;-76
2023/06/26 06:02:46;;;;;;;8.57;5.55;;;;;;;;;;4986772;28;20604;-76
2023/06/26 06:05:17;;;;;;;8.48;5.07;;;;;;;;;;4986898;28;20050;-76
2023/06/26 06:07:49;;;;;;;7.47;5.43;;;;;;;;;;4969708;28;20061;-75
2023/06/26 06:10:19;;;;;;;10.23;5.43;;;;;;;;;;4986830;28;20505;-75
2023/06/26 06:12:49;;;;;;;8.00;5.47;;;;;;;;;;4986638;28;20050;-76
2023/06/26 06:15:21;;;;;;;8.10;5.68;;;;;;;;;;4986867;28;20050;-75
2023/06/26 06:17:51;;;;;;;8.13;5.65;;;;;;;;;;4986507;28;20042;-75
2023/06/26 06:20:22;;;;;;;7.63;5.32;;;;;;;;;;4986742;28;20049;-75
2023/06/26 06:22:52;;;;;;;8.15;5.63;;;;;;;;;;4986622;28;20054;-76
2023/06/26 06:25:22;;;;;;;9.95;5.03;;;;;;;;;;4986479;28;20529;-76
2023/06/26 06:27:52;;;;;;;10.57;5.65;;;;;;;;;;4985763;28;20411;-75
2023/06/26 06:30:23;;;;;;;11.05;5.13;;;;;;;;;;4986204;28;20046;-76
2023/06/26 06:33:12;;;;;;;9.48;5.50;;;;;;;;;;4986560;28;20050;-75
2023/06/26 06:35:42;;;;;;;9.15;5.57;;;;;;;;;;4986736;28;20425;-75
2023/06/26 06:38:12;;;;;;;8.88;4.50;;;;;;;;;;4986389;28;20038;-76
2023/06/26 06:40:43;;;;;;;9.90;6.43;;;;;;;;;;4986765;28;20765;-76
2023/06/26 06:43:13;;;;;;;10.77;5.70;;;;;;;;;;4985925;28;20532;-76
2023/06/26 06:45:43;;;;;;;9.57;5.75;;;;;;;;;;4986216;28;20663;-76
2023/06/26 06:48:14;;;;;;;11.05;5.90;;;;;;;;;;4969176;28;20069;-75
2023/06/26 06:50:45;;;;;;;8.70;5.93;;;;;;;;;;4985646;28;20804;-76
2023/06/26 06:53:15;;;;;;;11.57;5.72;;;;;;;;;;4985654;28;20121;-76
2023/06/26 06:55:46;;;;;;;7.65;5.95;;;;;;;;;;4986214;28;20060;-76
2023/06/26 06:58:24;;;;;;;11.23;6.22;;;;;;;;;;4985908;28;20053;-76
2023/06/26 07:00:55;;;;;;;8.85;5.82;;;;;;;;;;4985450;28;20075;-75
2023/06/26 07:03:27;;;;;;;8.13;5.53;;;;;;;;;;4985626;28;20049;-76
2023/06/26 07:05:57;;;;;;;13.70;5.78;;;;;;;;;;4986095;28;20057;-76
2023/06/26 07:08:27;;;;;;;8.00;5.68;;;;;;;;;;4985976;28;20051;-76
2023/06/26 07:10:58;;;;;;;9.15;5.78;;;;;;;;;;4986111;28;20046;-75
2023/06/26 07:13:29;;;;;;;11.48;5.90;;;;;;;;;;4985596;28;20387;-75
2023/06/26 07:15:59;;;;;;;15.05;5.90;;;;;;;;;;4985429;28;20050;-75
2023/06/26 07:18:29;;;;;;;10.25;5.40;;;;;;;;;;4985272;28;20050;-76
2023/06/26 07:21:00;;;;;;;7.05;5.45;;;;;;;;;;4985533;28;20051;-76
2023/06/26 07:23:31;;;;;;;10.75;5.43;;;;;;;;;;4985714;28;20050;-75
2023/06/26 07:26:02;;;;;;;12.85;6.50;;;;;;;;;;4985884;28;20051;-75
2023/06/26 07:28:32;;;;;;;8.93;5.53;;;;;;;;;;4986218;28;20122;-75
2023/06/26 07:31:02;;;;;;;10.98;5.72;;;;;;;;;;4985886;28;20053;-75
2023/06/26 07:33:32;;;;;;;6.00;4.90;;;;;;;;;;4985404;28;20050;-76
2023/06/26 07:36:03;;;;;;;11.23;5.65;;;;;;;;;;4985662;28;20046;-76
2023/06/26 07:38:35;;;;;;;6.70;5.22;;;;;;;;;;4985705;28;20410;-75
2023/06/26 07:41:06;;;;;;;8.40;5.30;;;;;;;;;;4985603;28;20050;-76
2023/06/26 07:43:36;;;;;;;8.05;5.60;;;;;;;;;;4985908;28;20493;-75
2023/06/26 07:46:06;;;;;;;8.30;4.90;;;;;;;;;;4985526;28;20057;-76
2023/06/26 07:48:36;;;;;;;10.98;5.63;;;;;;;;;;4985257;28;20046;-75
2023/06/26 07:51:07;;;;;;;9.65;5.72;;;;;;;;;;4985221;28;20046;-75
2023/06/26 07:53:37;;;;;;;8.27;5.68;;;;;;;;;;4985377;28;20046;-75
2023/06/26 07:56:07;;;;;;;7.97;5.45;;;;;;;;;;4968562;28;20058;-75
2023/06/26 07:58:37;;;;;;;6.78;5.30;;;;;;;;;;4985592;28;20054;-75
2023/06/26 08:01:09;;;;;;;10.85;5.50;;;;;;;;;;4985428;28;20161;-76
2023/06/26 08:03:39;;;;;;;8.05;5.35;;;;;;;;;;4985526;28;20046;-76
2023/06/26 08:06:10;;;;;;;8.13;5.40;;;;;;;;;;4985625;28;20043;-76
2023/06/26 08:08:40;;;;;;;6.05;5.13;;;;;;;;;;4985264;28;20054;-75
2023/06/26 08:11:11;;;;;;;12.40;5.97;;;;;;;;;;4985242;28;20073;-76
2023/06/26 08:13:41;;;;;;;7.20;5.20;;;;;;;;;;4968226;28;20391;-76
2023/06/26 08:16:12;;;;;;;6.88;5.43;;;;;;;;;;4971556;28;20417;-76
2023/06/26 08:18:41;;;;;;;7.35;5.10;;;;;;;;;;4988945;28;20050;-75
2023/06/26 08:21:12;;;;;;;8.13;4.82;;;;;;;;;;4989024;28;20053;-75
2023/06/26 08:23:42;;;;;;;10.73;5.53;;;;;;;;;;4988761;28;20449;-76
2023/06/26 08:26:15;;;;;;;11.55;5.20;;;;;;;;;;4988586;28;20042;-76
2023/06/26 08:28:44;;;;;;;7.78;5.22;;;;;;;;;;4988256;28;20051;-75
2023/06/26 08:31:14;;;;;;;10.77;4.88;;;;;;;;;;4988466;28;20509;-76
2023/06/26 08:33:45;;;;;;;9.77;5.03;;;;;;;;;;4988302;28;20058;-76
2023/06/26 08:36:15;;;;;;;6.53;5.30;;;;;;;;;;4971509;28;20053;-76
2023/06/26 08:38:46;;;;;;;7.45;5.03;;;;;;;;;;4988516;28;20054;-76
2023/06/26 08:41:15;;;;;;;6.40;5.45;;;;;;;;;;4988280;28;20425;-75
2023/06/26 08:43:46;;;;;;;8.50;5.10;;;;;;;;;;4988041;28;20058;-76
2023/06/26 08:46:17;;;;;;;8.25;4.78;;;;;;;;;;4988408;28;20046;-76
2023/06/26 08:48:56;;;;;;;5.40;4.57;;;;;;;;;;4988754;28;20050;-75
2023/06/26 08:51:30;;;;;;;9.27;5.40;;;;;;;;;;4988745;28;20409;-75
2023/06/26 08:54:02;;;;;;;6.60;4.85;;;;;;;;;;4971492;28;20042;-76
2023/06/26 08:56:44;;;;;;;7.93;5.40;;;;;;;;;;4988226;28;20390;-75
2023/06/26 08:59:16;;;;;;;7.18;4.55;;;;;;;;;;4970852;28;20046;-76
2023/06/26 09:01:46;;;;;;;10.50;4.78;;;;;;;;;;4987967;28;20050;-76
2023/06/26 09:04:16;;;;;;;7.35;4.90;;;;;;;;;;4987985;28;20050;-75
2023/06/26 09:06:47;;;;;;;12.60;5.30;;;;;;;;;;4988256;28;20050;-75
2023/06/26 09:09:17;;;;;;;8.60;4.93;;;;;;;;;;4988216;28;20061;-75
2023/06/26 09:11:49;;;;;;;11.85;5.18;;;;;;;;;;4987692;28;20038;-75
2023/06/26 09:14:20;;;;;;;6.18;4.45;;;;;;;;;;4970391;28;20058;-75
2023/06/26 09:16:50;;;;;;;7.63;5.13;;;;;;;;;;4987950;28;20057;-75
2023/06/26 09:19:21;;;;;;;11.57;5.30;;;;;;;;;;4987931;28;20050;-75
2023/06/26 09:21:51;;;;;;;12.18;6.43;;;;;;;;;;4988100;28;20057;-76
2023/06/26 09:24:22;;;;;;;11.90;5.38;;;;;;;;;;4988080;28;20088;-75
2023/06/26 09:26:53;;;;;;;10.57;5.75;;;;;;;;;;4986607;28;20053;-77
2023/06/26 09:29:24;;;;;;;10.85;6.55;;;;;;;;;;4970556;28;20042;-76
2023/06/26 09:31:56;;;;;;;14.20;5.60;;;;;;;;;;4969869;28;20058;-75
2023/06/26 09:34:33;;;;;;;11.55;6.18;;;;;;;;;;4968062;28;20054;-76
2023/06/26 09:37:04;;;;;;;13.02;7.13;;;;;;;;;;4967960;28;20421;-75
2023/06/26 09:39:35;;;;;;;10.98;5.60;;;;;;;;;;4967994;28;20051;-75
2023/06/26 09:42:07;;;;;;;8.52;5.35;;;;;;;;;;4968177;28;20047;-76
2023/06/26 09:44:45;;;;;;;8.57;5.40;;;;;;;;;;4968010;28;20061;-76
2023/06/26 09:47:21;;;;;;;6.90;5.07;;;;;;;;;;4967502;28;20055;-75
2023/06/26 09:49:54;;;;;;;11.93;5.05;;;;;;;;;;4965942;28;20718;-78
2023/06/26 09:52:28;;;;;;;8.55;5.40;;;;;;;;;;4967129;28;20058;-77
2023/06/26 09:55:09;;;;;;;7.93;4.68;;;;;;;;;;4968105;28;20546;-75
2023/06/26 09:57:43;;;;;;;8.25;4.90;;;;;;;;;;4968216;28;20134;-75
2023/06/26 10:00:16;;;;;;;16.27;7.13;;;;;;;;;;4967760;28;20057;-76
2023/06/26 10:02:48;;;;;;;13.10;7.28;;;;;;;;;;4966472;28;20391;-77
2023/06/26 10:05:20;;;;;;;9.60;5.72;;;;;;;;;;4967628;28;20051;-76
2023/06/26 10:07:51;;;;;;;9.55;6.13;;;;;;;;;;4967221;28;20058;-76
2023/06/26 10:10:26;;;;;;;8.60;5.45;;;;;;;;;;4967153;28;20482;-76
2023/06/26 10:13:01;;;;;;;5.60;4.80;;;;;;;;;;4967146;28;20061;-75
2023/06/26 10:15:31;;;;;;;9.48;4.82;;;;;;;;;;4968086;28;20515;-76
2023/06/26 10:18:02;;;;;;;6.90;5.40;;;;;;;;;;4967348;28;20426;-76
2023/06/26 10:20:33;;;;;;;11.23;5.57;;;;;;;;;;4965427;28;20051;-75
2023/06/26 10:23:07;;;;;;;11.30;4.88;;;;;;;;;;4966815;28;20046;-75
2023/06/26 10:25:42;;;;;;;17.75;7.50;;;;;;;;;;4966348;28;20604;-75
2023/06/26 10:28:13;;;;;;;11.32;6.63;;;;;;;;;;4967126;28;20387;-76
2023/06/26 10:30:48;;;;;;;6.32;5.00;;;;;;;;;;4967192;28;20058;-76
2023/06/26 10:33:20;;;;;;;8.52;4.50;;;;;;;;;;4967181;28;20061;-77
2023/06/26 10:35:51;;;;;;;10.20;5.60;;;;;;;;;;4965102;28;20065;-75
2023/06/26 10:38:42;;;;;;;14.65;6.20;;;;;;;;;;4966681;28;20406;-76
2023/06/26 10:41:15;;;;;;;7.80;5.00;;;;;;;;;;4966755;28;20047;-78
2023/06/26 10:43:50;;;;;;;9.18;5.70;;;;;;;;;;4967133;28;20046;-76
2023/06/26 10:46:22;;;;;;;10.30;6.38;;;;;;;;;;4965482;28;20530;-78
2023/06/26 10:49:02;;;;;;;11.52;6.05;;;;;;;;;;4966659;28;20406;-76
2023/06/26 10:51:32;;;;;;;8.73;6.40;;;;;;;;;;4966921;28;20055;-75
2023/06/26 10:54:03;;;;;;;8.85;6.35;;;;;;;;;;4966575;28;20057;-79
2023/06/26 10:56:50;;;;;;;11.50;6.95;;;;;;;;;;4966634;28;20055;-75
2023/06/26 10:59:23;;;;;;;9.20;6.72;;;;;;;;;;4966723;28;20043;-76
2023/06/26 11:01:56;;;;;;;9.43;6.57;;;;;;;;;;4966527;28;20526;-75
2023/06/26 11:04:44;;;;;;;16.45;6.65;;;;;;;;;;4966604;28;20050;-76
2023/06/26 11:07:25;;;;;;;7.90;5.78;;;;;;;;;;4966685;28;20049;-76
2023/06/26 11:10:07;;;;;;;9.57;6.13;;;;;;;;;;4966278;28;20046;-78
2023/06/26 11:12:42;;;;;;;;;;;;;;;;;;4966649;28;20062;-76
2023/06/26 11:15:15;;;;;;;8.13;6.03;;;;;;;;;;4966318;28;20484;-75
2023/06/26 11:17:46;;;;;;;8.75;6.00;;;;;;;;;;4966555;28;20047;-75
2023/06/26 11:20:17;;;;;;;8.25;5.50;;;;;;;;;;4967144;28;20047;-75
2023/06/26 11:22:54;;;;;;;7.88;6.00;;;;;;;;;;4966394;28;20054;-77
2023/06/26 11:25:25;;;;;;;7.68;5.22;;;;;;;;;;4966595;28;20051;-77
2023/06/26 11:27:56;;;;;;;15.32;6.28;;;;;;;;;;4966203;28;20055;-75
2023/06/26 11:30:28;;;;;;;9.73;5.65;;;;;;;;;;4966808;28;20063;-77
2023/06/26 11:33:10;;;;;;;6.53;5.07;;;;;;;;;;4966388;28;20486;-77
2023/06/26 11:35:40;;;;;;;13.30;6.35;;;;;;;;;;4966414;28;20715;-77
2023/06/26 11:38:10;;;;;;;13.48;6.80;;;;;;;;;;4966215;28;20403;-77
2023/06/26 11:40:41;;;;;;;16.27;9.25;;;;;;;;;;4965986;28;20795;-77
2023/06/26 11:43:13;;;;;;;19.33;9.30;;;;;;;;;;4965966;28;20047;-77
2023/06/26 11:45:44;;;;;;;10.85;6.82;;;;;;;;;;4965917;28;20056;-80
2023/06/26 11:48:16;;;;;;;13.15;6.35;;;;;;;;;;4965841;28;20062;-77
2023/06/26 11:50:50;;;;;;;11.82;5.68;;;;;;;;;;4969305;28;20058;-76
2023/06/26 11:53:21;;;;;;;6.85;3.80;;;;;;;;;;4970120;28;20057;-76
2023/06/26 11:55:50;;;;;;;19.42;6.60;;;;;;;;;;4969908;28;20510;-80
2023/06/26 11:58:21;;;;;;;12.63;6.47;;;;;;;;;;4970058;28;20069;-77
2023/06/26 12:00:51;;;;;;;12.45;7.60;;;;;;;;;;4969708;28;20403;-77
2023/06/26 12:03:22;;;;;;;11.70;5.93;;;;;;;;;;4969479;28;20045;-77
2023/06/26 12:05:53;;;;;;;17.48;7.28;;;;;;;;;;4967710;28;20046;-77
2023/06/26 12:08:23;;;;;;;7.30;4.45;;;;;;;;;;4969686;28;20062;-76
2023/06/26 12:10:54;;;;;;;17.48;6.20;;;;;;;;;;4970123;28;20046;-79
2023/06/26 12:13:26;;;;;;;7.05;3.83;;;;;;;;;;4969234;28;20057;-77
2023/06/26 12:15:58;;;;;;;10.80;4.30;;;;;;;;;;4969614;28;20350;-74
2023/06/26 12:18:39;;;;;;;20.58;7.93;;;;;;;;;;4969631;28;20065;-74
2023/06/26 12:21:27;;;;;;;13.35;7.55;;;;;;;;;;4969537;28;20422;-74
2023/06/26 12:24:01;;;;;;;28.38;12.35;;;;;;;;;;4969507;28;20047;-74
2023/06/26 12:26:38;;;;;;;26.50;11.65;;;;;;;;;;4968055;28;20143;-77
2023/06/26 12:29:14;;;;;;;24.88;11.98;;;;;;;;;;4969633;28;20502;-74
2023/06/26 12:31:52;;;;;;;23.20;11.38;;;;;;;;;;4969407;28;20050;-78
2023/06/26 12:34:33;;;;;;;11.90;6.95;;;;;;;;;;4969091;28;20050;-74
2023/06/26 12:37:13;;;;;;;12.68;6.13;;;;;;;;;;4969227;28;20048;-76
2023/06/26 12:39:47;;;;;;;20.27;8.48;;;;;;;;;;4967968;28;20066;-74
2023/06/26 12:42:25;;;;;;;19.25;9.48;;;;;;;;;;4969241;28;20043;-74
2023/06/26 12:44:56;;;;;;;18.95;7.38;;;;;;;;;;4968986;28;20035;-74
2023/06/26 12:47:28;;;;;;;14.27;6.47;;;;;;;;;;4969131;28;20054;-75
2023/06/26 12:50:04;;;;;;;19.60;7.13;;;;;;;;;;4968790;28;20549;-75
2023/06/26 12:52:35;;;;;;;15.52;8.82;;;;;;;;;;4968559;28;20050;-75
2023/06/26 12:55:07;;;;;;;24.00;9.30;;;;;;;;;;4968455;28;20055;-74
2023/06/26 12:57:38;;;;;;;19.00;8.77;;;;;;;;;;4969008;28;20407;-75
2023/06/26 13:00:10;;;;;;;17.70;6.05;;;;;;;;;;4968772;28;20521;-74
2023/06/26 13:02:41;;;;;;;9.30;4.45;;;;;;;;;;4968750;28;20502;-75
2023/06/26 13:05:11;;;;;;;12.60;4.82;;;;;;;;;;4968524;28;20074;-75
2023/06/26 13:07:42;;;;;;;13.32;4.95;;;;;;;;;;4968290;28;20051;-75
2023/06/26 13:10:12;;;;;;;5.95;2.90;;;;;;;;;;4968039;28;20406;-74
2023/06/26 13:12:43;;;;;;;5.47;2.75;;;;;;;;;;4968446;28;20055;-75
2023/06/26 13:15:14;;;;;;;11.60;3.28;;;;;;;;;;4968430;28;20058;-74
2023/06/26 13:17:44;;;;;;;7.15;2.67;;;;;;;;;;4968679;28;20057;-75
2023/06/26 13:20:15;;;;;;;11.48;2.80;;;;;;;;;;4968638;28;20517;-74
2023/06/26 13:22:46;;;;;;;12.65;3.38;;;;;;;;;;4966651;28;20051;-78
2023/06/26 13:25:16;;;;;;;10.43;2.83;;;;;;;;;;4968367;28;20046;-75
2023/06/26 13:27:47;;;;;;;7.10;3.03;;;;;;;;;;4968390;28;20050;-75
2023/06/26 13:30:18;;;;;;;6.10;2.53;;;;;;;;;;4968661;28;20051;-75
2023/06/26 13:32:48;;;;;;;15.43;3.83;;;;;;;;;;4968445;28;20066;-75
2023/06/26 13:35:18;;;;;;;4.75;2.00;;;;;;;;;;4968335;28;20043;-76
2023/06/26 13:37:49;;;;;;;8.07;2.58;;;;;;;;;;4968340;28;20042;-75
2023/06/26 13:40:20;;;;;;;3.65;2.10;;;;;;;;;;4968302;28;20055;-76
2023/06/26 13:42:50;;;;;;;23.10;3.67;;;;;;;;;;4968052;28;20490;-76
2023/06/26 13:45:21;;;;;;;8.98;2.33;;;;;;;;;;4967888;28;20059;-76
2023/06/26 13:48:01;;;;;;;6.60;2.20;;;;;;;;;;4968155;28;20043;-77
2023/06/26 13:50:32;;;;;;;8.82;2.15;;;;;;;;;;4968320;28;20050;-77
2023/06/26 13:53:22;;;;;;;8.00;2.35;;;;;;;;;;4967902;28;20055;-77
2023/06/26 13:55:52;;;;;;;8.18;1.80;;;;;;;;;;4967406;28;20054;-76
2023/06/26 13:58:26;;;;;;;16.92;3.17;;;;;;;;;;4966144;28;20055;-77
2023/06/26 14:00:57;;;;;;;5.82;1.70;;;;;;;;;;4967652;28;20059;-77
2023/06/26 14:03:28;;;;;;;6.35;1.80;;;;;;;;;;4967659;28;20510;-78
2023/06/26 14:05:59;;;;;;;3.35;1.73;;;;;;;;;;4966483;28;20608;-77
2023/06/26 14:08:29;;;;;;;3.15;1.73;;;;;;;;;;4967543;28;20046;-81
2023/06/26 14:11:01;;;;;;;5.00;2.35;;;;;;;;;;4967625;28;20062;-76
2023/06/26 14:13:31;;;;;;;4.18;1.52;;;;;;;;;;4966881;28;20062;-76
2023/06/26 14:16:01;;;;;;;7.50;1.73;;;;;;;;;;4967479;28;20493;-76
2023/06/26 14:18:31;;;;;;;5.28;1.90;;;;;;;;;;4967555;28;20058;-77
2023/06/26 14:21:02;;;;;;;4.70;2.00;;;;;;;;;;4967139;28;20050;-76
2023/06/26 14:23:32;;;;;;;10.98;2.40;;;;;;;;;;4967382;28;20054;-76
2023/06/26 14:26:02;;;;;;;4.18;1.83;;;;;;;;;;4967140;28;20055;-81
2023/06/26 14:28:32;;;;;;;31.77;3.53;;;;;;;;;;4967201;28;20051;-77
2023/06/26 14:31:02;;;;;;;4.18;1.65;;;;;;;;;;4967016;28;20050;-77
2023/06/26 14:33:32;;;;;;;4.20;1.75;;;;;;;;;;4966958;28;20061;-76
2023/06/26 14:36:05;;;;;;;7.10;2.05;;;;;;;;;;4967232;28;20050;-77
2023/06/26 14:38:36;;;;;;;6.15;1.85;;;;;;;;;;4967303;28;20047;-77
2023/06/26 14:41:07;;;;;;;7.28;2.03;;;;;;;;;;4966837;28;20058;-77
2023/06/26 14:43:39;;;;;;;5.18;1.75;;;;;;;;;;4966486;28;20042;-77
2023/06/26 14:46:11;;;;;;;5.85;1.77;;;;;;;;;;4966746;28;20057;-80
2023/06/26 14:48:42;;;;;;;6.03;2.00;;;;;;;;;;4966960;28;20051;-76
2023/06/26 14:51:12;;;;;;;14.32;2.60;;;;;;;;;;4966378;28;20058;-79
2023/06/26 14:53:43;;;;;;;12.00;2.80;;;;;;;;;;4966823;28;20498;-77
2023/06/26 14:56:13;;;;;;;6.35;2.20;;;;;;;;;;4966465;28;20046;-77
2023/06/26 14:58:47;;;;;;;7.20;1.90;;;;;;;;;;4966910;28;20050;-77
2023/06/26 15:01:19;;;;;;;10.82;2.58;;;;;;;;;;4967344;28;20043;-76
2023/06/26 15:03:49;;;;;;;7.57;2.60;;;;;;;;;;4966594;28;20867;-76
2023/06/26 15:06:19;;;;;;;8.00;2.30;;;;;;;;;;4966449;28;20051;-76
2023/06/26 15:08:50;;;;;;;10.00;2.47;;;;;;;;;;4966593;28;20438;-77